sensor_id;sensor_type;location;lat;lon;timestamp;P1;durP1;ratioP1;P2;durP2;ratioP2
13469;SDS011;6807;48.682;9.032;2023-04-01T00:01:03;1.40;;;1.30;;
13469;SDS011;6807;48.682;9.032;2023-04-01T00:03:32;2.92;;;1.38;;
13469;SDS011;6807;48.682;9.032;2023-04-01T00:06:02;3.13;;;1.42;;
13469;SDS011;6807;48.682;9.032;2023-04-01T00:08:31;2.17;;;1.50;;
13469;SDS011;6807;48.682;9.032;2023-04-01T00:10:59;2.92;;;1.40;;
13469;SDS011;6807;48.682;9.032;2023-04-01T00:13:26;1.50;;;1.20;;
13469;SDS011;6807;48.682;9.032;2023-04-01T00:15:53;1.63;;;1.42;;
13469;SDS011;6807;48.682;9.032;2023-04-01T00:18:21;5.07;;;1.45;;
13469;SDS011;6807;48.682;9.032;2023-04-01T00:20:51;2.25;;;1.30;;
13469;SDS011;6807;48.682;9.032;2023-04-01T00:23:20;2.85;;;1.60;;
13469;SDS011;6807;48.682;9.032;2023-04-01T00:25:47;5.53;;;1.65;;
13469;SDS011;6807;48.682;9.032;2023-04-01T00:28:15;3.78;;;1.48;;
13469;SDS011;6807;48.682;9.032;2023-04-01T00:30:42;2.38;;;1.55;;
13469;SDS011;6807;48.682;9.032;2023-04-01T00:33:09;11.57;;;1.80;;
13469;SDS011;6807;48.682;9.032;2023-04-01T00:35:36;5.18;;;1.40;;
13469;SDS011;6807;48.682;9.032;2023-04-01T00:38:05;2.35;;;1.50;;
13469;SDS011;6807;48.682;9.032;2023-04-01T00:40:37;5.32;;;1.70;;
13469;SDS011;6807;48.682;9.032;2023-04-01T00:43:08;5.50;;;1.60;;
13469;SDS011;6807;48.682;9.032;2023-04-01T00:45:38;1.83;;;1.33;;
13469;SDS011;6807;48.682;9.032;2023-04-01T00:48:07;2.95;;;1.65;;
13469;SDS011;6807;48.682;9.032;2023-04-01T00:50:36;1.75;;;1.30;;
13469;SDS011;6807;48.682;9.032;2023-04-01T00:53:05;2.38;;;1.40;;
13469;SDS011;6807;48.682;9.032;2023-04-01T00:55:33;2.08;;;1.45;;
13469;SDS011;6807;48.682;9.032;2023-04-01T00:58:04;4.03;;;1.30;;
13469;SDS011;6807;48.682;9.032;2023-04-01T01:00:32;4.30;;;1.60;;
13469;SDS011;6807;48.682;9.032;2023-04-01T01:03:00;2.50;;;1.38;;
13469;SDS011;6807;48.682;9.032;2023-04-01T01:05:30;3.33;;;1.30;;
13469;SDS011;6807;48.682;9.032;2023-04-01T01:08:06;2.22;;;1.40;;
13469;SDS011;6807;48.682;9.032;2023-04-01T01:10:38;3.45;;;1.42;;
13469;SDS011;6807;48.682;9.032;2023-04-01T01:13:14;1.35;;;1.17;;
13469;SDS011;6807;48.682;9.032;2023-04-01T01:15:44;2.67;;;1.55;;
13469;SDS011;6807;48.682;9.032;2023-04-01T01:18:15;1.65;;;1.23;;
13469;SDS011;6807;48.682;9.032;2023-04-01T01:20:48;1.85;;;1.30;;
13469;SDS011;6807;48.682;9.032;2023-04-01T01:23:29;1.30;;;1.20;;
13469;SDS011;6807;48.682;9.032;2023-04-01T01:26:13;3.30;;;1.30;;
13469;SDS011;6807;48.682;9.032;2023-04-01T01:28:45;2.72;;;1.52;;
13469;SDS011;6807;48.682;9.032;2023-04-01T01:31:17;3.33;;;1.20;;
13469;SDS011;6807;48.682;9.032;2023-04-01T01:33:52;1.42;;;1.30;;
13469;SDS011;6807;48.682;9.032;2023-04-01T01:36:26;3.10;;;1.30;;
13469;SDS011;6807;48.682;9.032;2023-04-01T01:38:55;2.67;;;1.30;;
13469;SDS011;6807;48.682;9.032;2023-04-01T01:41:23;2.13;;;1.40;;
13469;SDS011;6807;48.682;9.032;2023-04-01T01:43:52;3.15;;;1.60;;
13469;SDS011;6807;48.682;9.032;2023-04-01T01:46:25;1.10;;;1.10;;
13469;SDS011;6807;48.682;9.032;2023-04-01T01:48:53;2.85;;;1.23;;
13469;SDS011;6807;48.682;9.032;2023-04-01T01:51:21;1.90;;;1.40;;
13469;SDS011;6807;48.682;9.032;2023-04-01T01:53:50;2.15;;;1.25;;
13469;SDS011;6807;48.682;9.032;2023-04-01T01:56:17;4.25;;;1.30;;
13469;SDS011;6807;48.682;9.032;2023-04-01T01:58:47;1.30;;;1.20;;
13469;SDS011;6807;48.682;9.032;2023-04-01T02:01:19;3.13;;;1.25;;
13469;SDS011;6807;48.682;9.032;2023-04-01T02:03:48;1.80;;;1.10;;
13469;SDS011;6807;48.682;9.032;2023-04-01T02:06:19;1.10;;;1.10;;
13469;SDS011;6807;48.682;9.032;2023-04-01T02:08:49;1.20;;;1.20;;
13469;SDS011;6807;48.682;9.032;2023-04-01T02:11:22;1.35;;;1.25;;
13469;SDS011;6807;48.682;9.032;2023-04-01T02:13:52;1.75;;;1.38;;
13469;SDS011;6807;48.682;9.032;2023-04-01T02:16:20;2.63;;;1.30;;
13469;SDS011;6807;48.682;9.032;2023-04-01T02:18:50;1.92;;;1.17;;
13469;SDS011;6807;48.682;9.032;2023-04-01T02:21:20;1.08;;;1.08;;
13469;SDS011;6807;48.682;9.032;2023-04-01T02:23:47;1.02;;;1.00;;
13469;SDS011;6807;48.682;9.032;2023-04-01T02:26:16;1.20;;;1.20;;
13469;SDS011;6807;48.682;9.032;2023-04-01T02:28:44;1.10;;;1.10;;
13469;SDS011;6807;48.682;9.032;2023-04-01T02:31:13;1.08;;;1.08;;
13469;SDS011;6807;48.682;9.032;2023-04-01T02:33:43;1.90;;;1.00;;
13469;SDS011;6807;48.682;9.032;2023-04-01T02:36:10;1.30;;;1.20;;
13469;SDS011;6807;48.682;9.032;2023-04-01T02:38:38;1.00;;;1.00;;
13469;SDS011;6807;48.682;9.032;2023-04-01T02:41:06;1.48;;;1.20;;
13469;SDS011;6807;48.682;9.032;2023-04-01T02:43:34;3.47;;;1.30;;
13469;SDS011;6807;48.682;9.032;2023-04-01T02:46:03;1.00;;;1.00;;
13469;SDS011;6807;48.682;9.032;2023-04-01T02:48:30;1.17;;;1.05;;
13469;SDS011;6807;48.682;9.032;2023-04-01T02:50:57;1.30;;;1.20;;
13469;SDS011;6807;48.682;9.032;2023-04-01T02:53:25;0.90;;;0.90;;
13469;SDS011;6807;48.682;9.032;2023-04-01T02:55:52;1.20;;;1.10;;
13469;SDS011;6807;48.682;9.032;2023-04-01T02:58:20;1.25;;;1.25;;
13469;SDS011;6807;48.682;9.032;2023-04-01T03:00:48;1.17;;;1.10;;
13469;SDS011;6807;48.682;9.032;2023-04-01T03:03:16;1.40;;;1.25;;
13469;SDS011;6807;48.682;9.032;2023-04-01T03:05:44;1.00;;;1.00;;
13469;SDS011;6807;48.682;9.032;2023-04-01T03:08:11;1.10;;;1.05;;
13469;SDS011;6807;48.682;9.032;2023-04-01T03:10:39;1.13;;;1.10;;
13469;SDS011;6807;48.682;9.032;2023-04-01T03:13:06;1.65;;;1.55;;
13469;SDS011;6807;48.682;9.032;2023-04-01T03:15:33;1.00;;;1.00;;
13469;SDS011;6807;48.682;9.032;2023-04-01T03:18:01;1.02;;;1.02;;
13469;SDS011;6807;48.682;9.032;2023-04-01T03:20:31;1.38;;;1.10;;
13469;SDS011;6807;48.682;9.032;2023-04-01T03:22:58;1.13;;;1.02;;
13469;SDS011;6807;48.682;9.032;2023-04-01T03:25:25;1.20;;;1.20;;
13469;SDS011;6807;48.682;9.032;2023-04-01T03:27:53;1.38;;;1.30;;
13469;SDS011;6807;48.682;9.032;2023-04-01T03:30:20;1.38;;;1.00;;
13469;SDS011;6807;48.682;9.032;2023-04-01T03:32:48;1.88;;;1.10;;
13469;SDS011;6807;48.682;9.032;2023-04-01T03:35:15;1.85;;;1.10;;
13469;SDS011;6807;48.682;9.032;2023-04-01T03:37:46;1.77;;;1.20;;
13469;SDS011;6807;48.682;9.032;2023-04-01T03:40:13;1.13;;;1.08;;
13469;SDS011;6807;48.682;9.032;2023-04-01T03:42:40;1.30;;;1.10;;
13469;SDS011;6807;48.682;9.032;2023-04-01T03:45:08;1.10;;;1.02;;
13469;SDS011;6807;48.682;9.032;2023-04-01T03:47:36;1.75;;;1.08;;
13469;SDS011;6807;48.682;9.032;2023-04-01T03:50:06;1.65;;;1.00;;
13469;SDS011;6807;48.682;9.032;2023-04-01T03:52:33;1.33;;;1.20;;
13469;SDS011;6807;48.682;9.032;2023-04-01T03:55:02;1.98;;;1.05;;
13469;SDS011;6807;48.682;9.032;2023-04-01T03:57:30;1.05;;;1.05;;
13469;SDS011;6807;48.682;9.032;2023-04-01T03:59:58;1.67;;;1.10;;
13469;SDS011;6807;48.682;9.032;2023-04-01T04:02:25;1.25;;;1.10;;
13469;SDS011;6807;48.682;9.032;2023-04-01T04:04:57;1.00;;;1.00;;
13469;SDS011;6807;48.682;9.032;2023-04-01T04:07:25;1.13;;;1.10;;
13469;SDS011;6807;48.682;9.032;2023-04-01T04:09:53;1.17;;;1.08;;
13469;SDS011;6807;48.682;9.032;2023-04-01T04:12:22;3.03;;;1.10;;
13469;SDS011;6807;48.682;9.032;2023-04-01T04:14:49;2.13;;;1.20;;
13469;SDS011;6807;48.682;9.032;2023-04-01T04:17:16;1.42;;;1.20;;
13469;SDS011;6807;48.682;9.032;2023-04-01T04:19:46;1.38;;;1.27;;
13469;SDS011;6807;48.682;9.032;2023-04-01T04:22:13;1.00;;;1.00;;
13469;SDS011;6807;48.682;9.032;2023-04-01T04:24:41;1.73;;;1.00;;
13469;SDS011;6807;48.682;9.032;2023-04-01T04:27:08;1.30;;;1.20;;
13469;SDS011;6807;48.682;9.032;2023-04-01T04:29:36;1.27;;;1.10;;
13469;SDS011;6807;48.682;9.032;2023-04-01T04:32:04;1.27;;;1.17;;
13469;SDS011;6807;48.682;9.032;2023-04-01T04:34:31;1.98;;;1.02;;
13469;SDS011;6807;48.682;9.032;2023-04-01T04:36:58;1.15;;;1.10;;
13469;SDS011;6807;48.682;9.032;2023-04-01T04:39:26;1.23;;;1.13;;
13469;SDS011;6807;48.682;9.032;2023-04-01T04:41:53;1.40;;;1.30;;
13469;SDS011;6807;48.682;9.032;2023-04-01T04:44:20;1.55;;;1.25;;
13469;SDS011;6807;48.682;9.032;2023-04-01T04:46:49;2.10;;;1.02;;
13469;SDS011;6807;48.682;9.032;2023-04-01T04:49:17;2.97;;;1.58;;
13469;SDS011;6807;48.682;9.032;2023-04-01T04:51:44;1.55;;;1.30;;
13469;SDS011;6807;48.682;9.032;2023-04-01T04:54:11;1.10;;;1.10;;
13469;SDS011;6807;48.682;9.032;2023-04-01T04:56:38;1.90;;;1.30;;
13469;SDS011;6807;48.682;9.032;2023-04-01T04:59:05;1.67;;;1.58;;
13469;SDS011;6807;48.682;9.032;2023-04-01T05:01:33;2.78;;;1.35;;
13469;SDS011;6807;48.682;9.032;2023-04-01T05:04:01;4.25;;;1.60;;
13469;SDS011;6807;48.682;9.032;2023-04-01T05:06:28;2.03;;;1.25;;
13469;SDS011;6807;48.682;9.032;2023-04-01T05:08:56;4.10;;;1.30;;
13469;SDS011;6807;48.682;9.032;2023-04-01T05:11:23;2.33;;;1.30;;
13469;SDS011;6807;48.682;9.032;2023-04-01T05:13:51;1.90;;;1.25;;
13469;SDS011;6807;48.682;9.032;2023-04-01T05:16:19;1.40;;;1.20;;
13469;SDS011;6807;48.682;9.032;2023-04-01T05:18:47;3.60;;;1.30;;
13469;SDS011;6807;48.682;9.032;2023-04-01T05:21:16;2.90;;;1.20;;
13469;SDS011;6807;48.682;9.032;2023-04-01T05:23:43;1.83;;;1.15;;
13469;SDS011;6807;48.682;9.032;2023-04-01T05:26:11;2.60;;;1.20;;
13469;SDS011;6807;48.682;9.032;2023-04-01T05:28:39;4.45;;;1.40;;
13469;SDS011;6807;48.682;9.032;2023-04-01T05:31:07;2.08;;;1.40;;
13469;SDS011;6807;48.682;9.032;2023-04-01T05:33:34;1.98;;;1.55;;
13469;SDS011;6807;48.682;9.032;2023-04-01T05:36:08;1.48;;;1.33;;
13469;SDS011;6807;48.682;9.032;2023-04-01T05:38:37;3.08;;;1.30;;
13469;SDS011;6807;48.682;9.032;2023-04-01T05:41:05;1.27;;;1.20;;
13469;SDS011;6807;48.682;9.032;2023-04-01T05:43:35;1.30;;;1.20;;
13469;SDS011;6807;48.682;9.032;2023-04-01T05:46:02;1.45;;;1.10;;
13469;SDS011;6807;48.682;9.032;2023-04-01T05:48:30;3.30;;;1.20;;
13469;SDS011;6807;48.682;9.032;2023-04-01T05:50:57;4.03;;;1.55;;
13469;SDS011;6807;48.682;9.032;2023-04-01T05:53:24;1.85;;;1.25;;
13469;SDS011;6807;48.682;9.032;2023-04-01T05:55:53;1.63;;;1.38;;
13469;SDS011;6807;48.682;9.032;2023-04-01T05:58:21;1.85;;;1.20;;
13469;SDS011;6807;48.682;9.032;2023-04-01T06:00:48;1.10;;;1.10;;
13469;SDS011;6807;48.682;9.032;2023-04-01T06:03:16;2.88;;;1.15;;
13469;SDS011;6807;48.682;9.032;2023-04-01T06:05:43;3.70;;;1.20;;
13469;SDS011;6807;48.682;9.032;2023-04-01T06:08:11;3.92;;;1.38;;
13469;SDS011;6807;48.682;9.032;2023-04-01T06:10:47;1.42;;;1.23;;
13469;SDS011;6807;48.682;9.032;2023-04-01T06:13:20;1.63;;;1.27;;
13469;SDS011;6807;48.682;9.032;2023-04-01T06:15:50;5.15;;;1.30;;
13469;SDS011;6807;48.682;9.032;2023-04-01T06:18:40;1.38;;;1.27;;
13469;SDS011;6807;48.682;9.032;2023-04-01T06:21:18;3.00;;;1.40;;
13469;SDS011;6807;48.682;9.032;2023-04-01T06:23:51;1.77;;;1.23;;
13469;SDS011;6807;48.682;9.032;2023-04-01T06:26:24;3.05;;;1.25;;
13469;SDS011;6807;48.682;9.032;2023-04-01T06:31:54;1.73;;;1.52;;
13469;SDS011;6807;48.682;9.032;2023-04-01T06:34:30;2.15;;;1.20;;
13469;SDS011;6807;48.682;9.032;2023-04-01T06:37:03;2.38;;;1.75;;
13469;SDS011;6807;48.682;9.032;2023-04-01T06:39:37;2.97;;;1.30;;
13469;SDS011;6807;48.682;9.032;2023-04-01T06:42:11;1.17;;;1.10;;
13469;SDS011;6807;48.682;9.032;2023-04-01T06:44:44;2.17;;;1.30;;
13469;SDS011;6807;48.682;9.032;2023-04-01T06:47:25;2.42;;;1.38;;
13469;SDS011;6807;48.682;9.032;2023-04-01T06:49:58;2.30;;;1.15;;
13469;SDS011;6807;48.682;9.032;2023-04-01T06:52:31;3.50;;;1.30;;
13469;SDS011;6807;48.682;9.032;2023-04-01T06:55:12;1.80;;;1.52;;
13469;SDS011;6807;48.682;9.032;2023-04-01T06:57:42;1.83;;;1.20;;
13469;SDS011;6807;48.682;9.032;2023-04-01T07:00:13;2.30;;;1.38;;
13469;SDS011;6807;48.682;9.032;2023-04-01T07:02:45;2.50;;;1.13;;
13469;SDS011;6807;48.682;9.032;2023-04-01T07:05:19;2.35;;;1.40;;
13469;SDS011;6807;48.682;9.032;2023-04-01T07:07:47;1.63;;;1.17;;
13469;SDS011;6807;48.682;9.032;2023-04-01T07:10:17;1.98;;;1.20;;
13469;SDS011;6807;48.682;9.032;2023-04-01T07:12:46;1.50;;;1.40;;
13469;SDS011;6807;48.682;9.032;2023-04-01T07:15:17;1.30;;;1.20;;
13469;SDS011;6807;48.682;9.032;2023-04-01T07:17:48;2.03;;;1.30;;
13469;SDS011;6807;48.682;9.032;2023-04-01T07:20:24;1.63;;;1.20;;
13469;SDS011;6807;48.682;9.032;2023-04-01T07:22:54;1.90;;;1.30;;
13469;SDS011;6807;48.682;9.032;2023-04-01T07:25:24;1.10;;;1.10;;
13469;SDS011;6807;48.682;9.032;2023-04-01T07:27:52;1.30;;;1.20;;
13469;SDS011;6807;48.682;9.032;2023-04-01T07:30:20;1.65;;;1.42;;
13469;SDS011;6807;48.682;9.032;2023-04-01T07:32:50;1.75;;;1.15;;
13469;SDS011;6807;48.682;9.032;2023-04-01T07:35:23;1.70;;;1.17;;
13469;SDS011;6807;48.682;9.032;2023-04-01T07:37:57;1.15;;;1.10;;
13469;SDS011;6807;48.682;9.032;2023-04-01T07:40:28;1.10;;;1.10;;
13469;SDS011;6807;48.682;9.032;2023-04-01T07:43:05;1.00;;;1.00;;
13469;SDS011;6807;48.682;9.032;2023-04-01T07:45:35;2.58;;;1.30;;
13469;SDS011;6807;48.682;9.032;2023-04-01T07:48:14;2.13;;;1.38;;
13469;SDS011;6807;48.682;9.032;2023-04-01T07:50:50;1.40;;;1.20;;
13469;SDS011;6807;48.682;9.032;2023-04-01T07:53:22;1.20;;;1.20;;
13469;SDS011;6807;48.682;9.032;2023-04-01T07:55:54;2.08;;;1.45;;
13469;SDS011;6807;48.682;9.032;2023-04-01T07:58:28;3.50;;;1.40;;
13469;SDS011;6807;48.682;9.032;2023-04-01T08:00:57;1.20;;;1.10;;
13469;SDS011;6807;48.682;9.032;2023-04-01T08:03:41;1.00;;;1.00;;
13469;SDS011;6807;48.682;9.032;2023-04-01T08:06:16;1.30;;;1.20;;
13469;SDS011;6807;48.682;9.032;2023-04-01T08:08:50;2.28;;;1.20;;
13469;SDS011;6807;48.682;9.032;2023-04-01T08:11:23;1.27;;;1.10;;
13469;SDS011;6807;48.682;9.032;2023-04-01T08:13:53;1.60;;;1.40;;
13469;SDS011;6807;48.682;9.032;2023-04-01T08:16:26;1.00;;;1.00;;
13469;SDS011;6807;48.682;9.032;2023-04-01T08:18:59;1.48;;;1.30;;
13469;SDS011;6807;48.682;9.032;2023-04-01T08:21:31;3.38;;;1.10;;
13469;SDS011;6807;48.682;9.032;2023-04-01T08:24:00;1.83;;;1.23;;
13469;SDS011;6807;48.682;9.032;2023-04-01T08:26:34;1.50;;;1.30;;
13469;SDS011;6807;48.682;9.032;2023-04-01T08:29:03;2.75;;;1.10;;
13469;SDS011;6807;48.682;9.032;2023-04-01T08:31:33;3.03;;;1.35;;
13469;SDS011;6807;48.682;9.032;2023-04-01T08:34:03;1.50;;;1.38;;
13469;SDS011;6807;48.682;9.032;2023-04-01T08:36:32;1.42;;;1.10;;
13469;SDS011;6807;48.682;9.032;2023-04-01T08:39:02;1.90;;;1.20;;
13469;SDS011;6807;48.682;9.032;2023-04-01T08:41:38;1.13;;;1.10;;
13469;SDS011;6807;48.682;9.032;2023-04-01T08:49:59;2.45;;;1.25;;
13469;SDS011;6807;48.682;9.032;2023-04-01T08:52:35;2.25;;;1.10;;
13469;SDS011;6807;48.682;9.032;2023-04-01T08:58:27;1.40;;;1.30;;
13469;SDS011;6807;48.682;9.032;2023-04-01T09:01:03;1.15;;;1.15;;
13469;SDS011;6807;48.682;9.032;2023-04-01T09:03:45;1.55;;;1.42;;
13469;SDS011;6807;48.682;9.032;2023-04-01T09:12:06;1.10;;;1.10;;
13469;SDS011;6807;48.682;9.032;2023-04-01T09:14:52;1.20;;;1.10;;
13469;SDS011;6807;48.682;9.032;2023-04-01T09:17:28;0.90;;;0.90;;
13469;SDS011;6807;48.682;9.032;2023-04-01T09:20:02;2.03;;;1.20;;
13469;SDS011;6807;48.682;9.032;2023-04-01T09:22:37;1.10;;;1.10;;
13469;SDS011;6807;48.682;9.032;2023-04-01T09:27:52;2.03;;;1.00;;
13469;SDS011;6807;48.682;9.032;2023-04-01T09:30:32;1.00;;;1.00;;
13469;SDS011;6807;48.682;9.032;2023-04-01T09:33:14;0.90;;;0.90;;
13469;SDS011;6807;48.682;9.032;2023-04-01T09:35:45;0.90;;;0.90;;
13469;SDS011;6807;48.682;9.032;2023-04-01T09:38:22;1.95;;;1.17;;
13469;SDS011;6807;48.682;9.032;2023-04-01T09:40:56;1.67;;;1.23;;
13469;SDS011;6807;48.682;9.032;2023-04-01T09:43:29;1.60;;;1.00;;
13469;SDS011;6807;48.682;9.032;2023-04-01T09:48:49;1.05;;;1.00;;
13469;SDS011;6807;48.682;9.032;2023-04-01T09:51:24;1.58;;;1.00;;
13469;SDS011;6807;48.682;9.032;2023-04-01T09:53:57;1.65;;;1.10;;
13469;SDS011;6807;48.682;9.032;2023-04-01T09:59:35;1.00;;;1.00;;
13469;SDS011;6807;48.682;9.032;2023-04-01T10:02:23;1.02;;;1.02;;
13469;SDS011;6807;48.682;9.032;2023-04-01T10:05:00;0.90;;;0.90;;
13469;SDS011;6807;48.682;9.032;2023-04-01T10:07:41;1.13;;;1.13;;
13469;SDS011;6807;48.682;9.032;2023-04-01T10:10:29;1.10;;;1.10;;
13469;SDS011;6807;48.682;9.032;2023-04-01T10:13:17;1.88;;;1.17;;
13469;SDS011;6807;48.682;9.032;2023-04-01T10:21:47;0.90;;;0.90;;
13469;SDS011;6807;48.682;9.032;2023-04-01T10:24:25;3.03;;;1.45;;
13469;SDS011;6807;48.682;9.032;2023-04-01T10:33:19;1.30;;;1.20;;
13469;SDS011;6807;48.682;9.032;2023-04-01T10:36:06;0.93;;;0.93;;
13469;SDS011;6807;48.682;9.032;2023-04-01T10:38:58;0.93;;;0.93;;
13469;SDS011;6807;48.682;9.032;2023-04-01T10:41:49;0.90;;;0.90;;
13469;SDS011;6807;48.682;9.032;2023-04-01T10:44:36;0.90;;;0.90;;
13469;SDS011;6807;48.682;9.032;2023-04-01T10:50:04;0.93;;;0.93;;
13469;SDS011;6807;48.682;9.032;2023-04-01T10:55:37;0.90;;;0.90;;
13469;SDS011;6807;48.682;9.032;2023-04-01T10:58:17;0.90;;;0.90;;
13469;SDS011;6807;48.682;9.032;2023-04-01T11:01:02;1.10;;;1.10;;
13469;SDS011;6807;48.682;9.032;2023-04-01T11:03:46;0.95;;;0.95;;
13469;SDS011;6807;48.682;9.032;2023-04-01T11:15:08;1.10;;;1.10;;
13469;SDS011;6807;48.682;9.032;2023-04-01T11:17:42;0.90;;;0.90;;
13469;SDS011;6807;48.682;9.032;2023-04-01T11:20:31;1.20;;;1.10;;
13469;SDS011;6807;48.682;9.032;2023-04-01T11:23:09;1.33;;;1.00;;
13469;SDS011;6807;48.682;9.032;2023-04-01T11:25:52;0.93;;;0.93;;
13469;SDS011;6807;48.682;9.032;2023-04-01T11:28:25;1.00;;;1.00;;
13469;SDS011;6807;48.682;9.032;2023-04-01T11:31:00;1.05;;;0.95;;
13469;SDS011;6807;48.682;9.032;2023-04-01T11:33:33;1.10;;;1.10;;
13469;SDS011;6807;48.682;9.032;2023-04-01T11:36:07;1.00;;;1.00;;
13469;SDS011;6807;48.682;9.032;2023-04-01T11:38:42;0.82;;;0.82;;
13469;SDS011;6807;48.682;9.032;2023-04-01T11:41:19;1.60;;;1.00;;
13469;SDS011;6807;48.682;9.032;2023-04-01T11:43:50;0.95;;;0.90;;
13469;SDS011;6807;48.682;9.032;2023-04-01T11:46:23;0.90;;;0.90;;
13469;SDS011;6807;48.682;9.032;2023-04-01T11:48:55;1.10;;;1.10;;
13469;SDS011;6807;48.682;9.032;2023-04-01T11:51:44;0.98;;;0.98;;
13469;SDS011;6807;48.682;9.032;2023-04-01T11:54:20;0.98;;;0.98;;
13469;SDS011;6807;48.682;9.032;2023-04-01T11:56:53;0.95;;;0.95;;
13469;SDS011;6807;48.682;9.032;2023-04-01T12:02:16;1.10;;;1.10;;
13469;SDS011;6807;48.682;9.032;2023-04-01T12:04:53;0.90;;;0.90;;
13469;SDS011;6807;48.682;9.032;2023-04-01T12:07:24;0.88;;;0.88;;
13469;SDS011;6807;48.682;9.032;2023-04-01T12:10:17;1.33;;;1.20;;
13469;SDS011;6807;48.682;9.032;2023-04-01T12:12:52;1.00;;;1.00;;
13469;SDS011;6807;48.682;9.032;2023-04-01T12:15:23;1.52;;;1.38;;
13469;SDS011;6807;48.682;9.032;2023-04-01T12:17:57;5.25;;;4.57;;
13469;SDS011;6807;48.682;9.032;2023-04-01T12:20:31;8.27;;;5.85;;
13469;SDS011;6807;48.682;9.032;2023-04-01T12:23:04;2.03;;;1.85;;
13469;SDS011;6807;48.682;9.032;2023-04-01T12:25:52;1.25;;;1.13;;
13469;SDS011;6807;48.682;9.032;2023-04-01T12:28:23;9.93;;;5.65;;
13469;SDS011;6807;48.682;9.032;2023-04-01T12:31:01;16.40;;;9.77;;
13469;SDS011;6807;48.682;9.032;2023-04-01T12:33:42;7.13;;;5.15;;
13469;SDS011;6807;48.682;9.032;2023-04-01T12:39:00;3.38;;;2.25;;
13469;SDS011;6807;48.682;9.032;2023-04-01T12:41:37;1.27;;;1.27;;
13469;SDS011;6807;48.682;9.032;2023-04-01T12:44:13;3.13;;;2.45;;
13469;SDS011;6807;48.682;9.032;2023-04-01T12:46:51;1.50;;;1.40;;
13469;SDS011;6807;48.682;9.032;2023-04-01T12:49:27;1.25;;;1.25;;
13469;SDS011;6807;48.682;9.032;2023-04-01T12:52:03;2.40;;;2.00;;
13469;SDS011;6807;48.682;9.032;2023-04-01T12:54:45;0.90;;;0.90;;
13469;SDS011;6807;48.682;9.032;2023-04-01T12:57:26;0.90;;;0.90;;
13469;SDS011;6807;48.682;9.032;2023-04-01T13:02:51;2.00;;;1.10;;
13469;SDS011;6807;48.682;9.032;2023-04-01T13:05:27;1.05;;;1.05;;
13469;SDS011;6807;48.682;9.032;2023-04-01T13:08:12;0.98;;;0.98;;
13469;SDS011;6807;48.682;9.032;2023-04-01T13:10:52;1.00;;;1.00;;
13469;SDS011;6807;48.682;9.032;2023-04-01T13:13:28;1.10;;;1.10;;
13469;SDS011;6807;48.682;9.032;2023-04-01T13:15:58;0.98;;;0.98;;
13469;SDS011;6807;48.682;9.032;2023-04-01T13:18:30;1.00;;;1.00;;
13469;SDS011;6807;48.682;9.032;2023-04-01T13:21:03;1.05;;;1.05;;
13469;SDS011;6807;48.682;9.032;2023-04-01T13:23:38;0.90;;;0.90;;
13469;SDS011;6807;48.682;9.032;2023-04-01T13:26:13;0.80;;;0.80;;
13469;SDS011;6807;48.682;9.032;2023-04-01T13:28:45;0.93;;;0.93;;
13469;SDS011;6807;48.682;9.032;2023-04-01T13:31:20;1.20;;;1.20;;
13469;SDS011;6807;48.682;9.032;2023-04-01T13:33:50;1.00;;;1.00;;
13469;SDS011;6807;48.682;9.032;2023-04-01T13:36:24;1.00;;;1.00;;
13469;SDS011;6807;48.682;9.032;2023-04-01T13:39:11;1.20;;;1.10;;
13469;SDS011;6807;48.682;9.032;2023-04-01T13:41:45;0.90;;;0.90;;
13469;SDS011;6807;48.682;9.032;2023-04-01T13:44:16;1.00;;;1.00;;
13469;SDS011;6807;48.682;9.032;2023-04-01T13:46:51;1.00;;;1.00;;
13469;SDS011;6807;48.682;9.032;2023-04-01T13:49:23;0.90;;;0.90;;
13469;SDS011;6807;48.682;9.032;2023-04-01T13:52:03;1.10;;;1.10;;
13469;SDS011;6807;48.682;9.032;2023-04-01T13:54:36;1.80;;;0.95;;
13469;SDS011;6807;48.682;9.032;2023-04-01T13:57:14;1.50;;;1.40;;
13469;SDS011;6807;48.682;9.032;2023-04-01T13:59:48;1.00;;;1.00;;
13469;SDS011;6807;48.682;9.032;2023-04-01T14:02:30;1.00;;;1.00;;
13469;SDS011;6807;48.682;9.032;2023-04-01T14:05:13;1.00;;;1.00;;
13469;SDS011;6807;48.682;9.032;2023-04-01T14:07:48;1.10;;;1.10;;
13469;SDS011;6807;48.682;9.032;2023-04-01T14:10:18;0.93;;;0.93;;
13469;SDS011;6807;48.682;9.032;2023-04-01T14:12:48;0.90;;;0.90;;
13469;SDS011;6807;48.682;9.032;2023-04-01T14:15:21;1.25;;;1.17;;
13469;SDS011;6807;48.682;9.032;2023-04-01T14:17:55;0.93;;;0.93;;
13469;SDS011;6807;48.682;9.032;2023-04-01T14:20:28;0.90;;;0.90;;
13469;SDS011;6807;48.682;9.032;2023-04-01T14:23:02;0.90;;;0.90;;
13469;SDS011;6807;48.682;9.032;2023-04-01T14:25:39;1.00;;;1.00;;
13469;SDS011;6807;48.682;9.032;2023-04-01T14:28:14;1.20;;;1.20;;
13469;SDS011;6807;48.682;9.032;2023-04-01T14:30:54;1.00;;;1.00;;
13469;SDS011;6807;48.682;9.032;2023-04-01T14:33:28;1.00;;;1.00;;
13469;SDS011;6807;48.682;9.032;2023-04-01T14:36:04;1.00;;;1.00;;
13469;SDS011;6807;48.682;9.032;2023-04-01T14:38:40;0.95;;;0.95;;
13469;SDS011;6807;48.682;9.032;2023-04-01T14:41:16;1.10;;;1.10;;
13469;SDS011;6807;48.682;9.032;2023-04-01T14:43:49;1.00;;;1.00;;
13469;SDS011;6807;48.682;9.032;2023-04-01T14:49:20;0.90;;;0.90;;
13469;SDS011;6807;48.682;9.032;2023-04-01T14:51:49;0.90;;;0.90;;
13469;SDS011;6807;48.682;9.032;2023-04-01T14:54:19;1.00;;;1.00;;
13469;SDS011;6807;48.682;9.032;2023-04-01T14:56:49;1.02;;;1.02;;
13469;SDS011;6807;48.682;9.032;2023-04-01T14:59:25;0.90;;;0.90;;
13469;SDS011;6807;48.682;9.032;2023-04-01T15:02:00;0.98;;;0.98;;
13469;SDS011;6807;48.682;9.032;2023-04-01T15:04:45;1.02;;;1.02;;
13469;SDS011;6807;48.682;9.032;2023-04-01T15:07:27;1.58;;;1.00;;
13469;SDS011;6807;48.682;9.032;2023-04-01T15:10:02;0.90;;;0.90;;
13469;SDS011;6807;48.682;9.032;2023-04-01T15:12:34;0.90;;;0.90;;
13469;SDS011;6807;48.682;9.032;2023-04-01T15:15:13;0.90;;;0.90;;
13469;SDS011;6807;48.682;9.032;2023-04-01T15:17:48;1.05;;;1.05;;
13469;SDS011;6807;48.682;9.032;2023-04-01T15:20:28;1.25;;;1.15;;
13469;SDS011;6807;48.682;9.032;2023-04-01T15:23:07;1.23;;;1.07;;
13469;SDS011;6807;48.682;9.032;2023-04-01T15:25:45;1.30;;;1.20;;
13469;SDS011;6807;48.682;9.032;2023-04-01T15:28:19;1.00;;;1.00;;
13469;SDS011;6807;48.682;9.032;2023-04-01T15:30:50;1.40;;;1.30;;
13469;SDS011;6807;48.682;9.032;2023-04-01T15:36:08;1.73;;;1.23;;
13469;SDS011;6807;48.682;9.032;2023-04-01T15:38:40;1.30;;;1.20;;
13469;SDS011;6807;48.682;9.032;2023-04-01T15:41:14;1.05;;;1.05;;
13469;SDS011;6807;48.682;9.032;2023-04-01T15:43:42;0.88;;;0.88;;
13469;SDS011;6807;48.682;9.032;2023-04-01T15:46:16;1.10;;;1.00;;
13469;SDS011;6807;48.682;9.032;2023-04-01T15:48:51;1.17;;;1.08;;
13469;SDS011;6807;48.682;9.032;2023-04-01T15:51:30;1.10;;;1.10;;
13469;SDS011;6807;48.682;9.032;2023-04-01T15:56:54;1.88;;;1.20;;
13469;SDS011;6807;48.682;9.032;2023-04-01T15:59:32;1.40;;;1.30;;
13469;SDS011;6807;48.682;9.032;2023-04-01T16:02:07;1.42;;;1.25;;
13469;SDS011;6807;48.682;9.032;2023-04-01T16:04:42;1.05;;;1.05;;
13469;SDS011;6807;48.682;9.032;2023-04-01T16:07:16;1.52;;;1.33;;
13469;SDS011;6807;48.682;9.032;2023-04-01T16:09:51;1.10;;;1.10;;
13469;SDS011;6807;48.682;9.032;2023-04-01T16:12:29;1.40;;;1.30;;
13469;SDS011;6807;48.682;9.032;2023-04-01T16:15:01;1.73;;;1.30;;
13469;SDS011;6807;48.682;9.032;2023-04-01T16:17:43;1.60;;;1.50;;
13469;SDS011;6807;48.682;9.032;2023-04-01T16:20:18;3.40;;;1.50;;
13469;SDS011;6807;48.682;9.032;2023-04-01T16:22:48;1.10;;;1.10;;
13469;SDS011;6807;48.682;9.032;2023-04-01T16:25:20;1.55;;;1.45;;
13469;SDS011;6807;48.682;9.032;2023-04-01T16:27:51;1.30;;;1.20;;
13469;SDS011;6807;48.682;9.032;2023-04-01T16:30:26;1.30;;;1.10;;
13469;SDS011;6807;48.682;9.032;2023-04-01T16:33:01;1.05;;;1.05;;
13469;SDS011;6807;48.682;9.032;2023-04-01T16:35:34;1.33;;;1.20;;
13469;SDS011;6807;48.682;9.032;2023-04-01T16:38:08;1.23;;;1.10;;
13469;SDS011;6807;48.682;9.032;2023-04-01T16:40:41;1.25;;;1.10;;
13469;SDS011;6807;48.682;9.032;2023-04-01T16:43:16;1.52;;;1.42;;